Capixaba, Brazil
Current Conditions -  °F | °C
As of 9:00 PM on Friday 19 Dec 2014 (Local Time) from SBRB Reporting Station
Clear Clear  
Wind Chill: 75°   Ceiling: Unl
Heat Index: 75°   Visibility: 6mi
Dew Point: 72°   Wind: 3mph
Humidity: 89%   Direction: 10°N
Pressure: 29.77"   Gusts: NA
Location:  10.57°S, 67.68°W
Report Text: SBRB 200100Z 01003KT CAVOK 24/22 Q1008
Loading
Personal Weather Stations






























Interactive Weather Map New forecast layout! Learn more

10-Day Weather Forecast

Advertisements
Track Severe Weather on mobile